PGRO/ROP METAR and TAF weather

Enter ICAO airport designator
Station Type Date Time Source
PGRO METAR 2019/05/26 00:55 UTC NOAA

PGRO 260055Z 09012KT 7SM SCT014 30/20 A2990 RMK WIND DATA ESTIMATED


Station Type Date Time Source
PGRO Decoded METAR 2019/05/26 00:55 UTC NOAA

Rota Island, N. Mariana Is, Rota International Airport, GU, United States (PGRO) 14-11N 145-15E
May 25, 2019 - 08:55 PM EDT / 2019.05.26 0055 UTC
Wind: from the E (090 degrees) at 14 MPH (12 KT):0
Visibility: 7 mile(s):0
Sky conditions: partly cloudy
Temperature: 86 F (30 C)
Dew Point: 68 F (20 C)
Relative Humidity: 55%
Pressure (altimeter): 29.9 in. Hg (1012 hPa)
ob: PGRO 260055Z 09012KT 7SM SCT014 30/20 A2990 RMK WIND DATA ESTIMATED
cycle: 1

Station Type Date Time Source
PGRO TAF 2019/05/25 21:12 UTC NOAA

TAF PGRO 252109Z 2521/2618 06008KT P6SM VCSH SCT014

Example: see airport list